GVA weather

Geneva Cointrin International Airport
Geneva, Canton of Geneva, Switzerland

Public forecast

Using degrees Celsius for public forecast. Weather courtesy of forecast.io.

Current aviation weather report (METAR) for Geneva Cointrin International Airport

Retrieved 2019/10/21 04:20 UTC (11 minutes ago):

LSGG 210420Z 23003KT 180V330 9999 FEW008 SCT036 BKN040 14/13 Q1015 NOSIG

Aviation forecast (TAF) for Geneva Cointrin International Airport

Retrieved 2019-10-21 03:34 UTC (57 minutes ago):

TAF LSGG 210225Z 2103/2209 VRB03KT 9999 FEW030 BKN060 TX16/2115Z TN11/2105Z TN10/2205Z TEMPO 2103/2105 RA BECMG 2121/2123 NSW